Orange Wave — ELPX7 — position and weather

sailwx.info

Track history (hours):
 
Tides and Currents Weather Stations Pressure Air Temp Water Temp Dewpoint Dewpoint Depression Visibility Wind Speed Wind Dir Waves Ship Positions

Orange Wave

Last reported at 2017-Nov-18 15:30 UTC. Time now 2017-Nov-18 15:48 UTC.
Position S 23°59' W 046°17'.

Type: Cargo ship. MMSI: 636009894.

Date/timePositionNaut miles runAvg speedWind from/ knotsBaromVisibWave heightAir tempDewpointWater temp
2017-Nov-18 15:30S 23°59' W 046°17'0 0.0
2017-Nov-18 15:00S 23°59' W 046°17'0 0.0
2017-Nov-18 14:30S 23°59' W 046°17'0 0.0
2017-Nov-18 14:00S 23°59' W 046°17'0 0.0
2017-Nov-18 13:30S 23°59' W 046°17'0 0.0
2017-Nov-18 10:58S 23°59' W 046°17'0 0.0
2017-Nov-18 10:24S 23°59' W 046°17'0 0.0
2017-Nov-17 19:10S 23°59' W 046°17'0 0.0
2017-Nov-17 17:05S 23°59' W 046°17'0 0.0
2017-Nov-17 16:56S 23°59' W 046°17'0 0.0
2017-Nov-17 16:30S 23°59' W 046°17'0 0.0
2017-Nov-17 15:50S 23°59' W 046°17'0 0.0
2017-Nov-17 15:28S 23°59' W 046°17'0 0.0
2017-Nov-17 14:55S 23°59' W 046°17'0 0.0
2017-Nov-17 14:05S 23°59' W 046°17'0 0.0
2017-Nov-17 13:55S 23°59' W 046°17'0 0.0
2017-Nov-17 13:17S 23°59' W 046°17'0 0.0
2017-Nov-17 13:00S 23°59' W 046°17'0 0.0
2017-Nov-17 12:29S 23°59' W 046°17'0 0.0
2017-Nov-17 12:00S 23°59' W 046°17'0 0.0
2017-Nov-17 11:26S 23°59' W 046°17'0 0.0
2017-Nov-17 11:00S 23°59' W 046°17'0 0.5
2017-Nov-17 10:28S 23°59' W 046°17'3 6.5
2017-Nov-17 10:00S 24°00' W 046°20'4 8.3
2017-Nov-17 09:30S 24°04' W 046°22'3 6.8
2017-Nov-17 09:00S 24°08' W 046°23'5 9.1
2017-Nov-17 08:30S 24°12' W 046°22'612.7
2017-Nov-17 08:00S 24°18' W 046°21'611.5
2017-Nov-17 07:30S 24°22' W 046°16'2710.4
2017-Nov-17 04:56S 24°22' W 045°47'2711.9
2017-Nov-17 02:40S 24°11' W 045°20'412.0
2017-Nov-17 02:22S 24°10' W 045°16'412.2
2017-Nov-17 02:00S 24°09' W 045°12'612.5
2017-Nov-17 01:30S 24°07' W 045°05'53614.3
2017-Nov-15 12:00S 18°12' W 037°54'18715.6 070 / 171020.510.8 27.525.5
2017-Nov-15 00:00S 15°18' W 036°42'19015.8 080 / 161018.510.8 27.023.6
2017-Nov-14 12:00S 12°24' W 035°24'73915.4 050 / 161017.5 28.523.7
2017-Nov-12 12:00S 01°00' W 030°42'35814.9 090 / 161014.510.8 28.023.2
2017-Nov-11 12:00N 04°30' W 028°24'37116.1 090 / 211012.510.8 28.524.4
2017-Nov-10 13:00N 10°12' W 026°00'37014.8 060 / 131016.010.8 28.525.1
2017-Nov-09 12:00N 15°54' W 023°36'   040 / 121018.010.8 27.022.1
Track history (hours):
 
Tides and Currents Weather Stations Pressure Air Temp Water Temp Dewpoint Dewpoint Depression Visibility Wind Speed Wind Dir Waves Ship Positions

Orange Wave

Last reported at 2017-Nov-18 15:30 UTC. Time now 2017-Nov-18 15:48 UTC.
Position S 23°59' W 046°17'.

Type: Cargo ship. MMSI: 636009894.

Date/timePositionNaut miles runAvg speedWind from/ knotsBaromVisibWave heightAir tempDewpointWater temp
2017-Nov-18 15:30S 23°59' W 046°17'0 0.0
2017-Nov-18 15:00S 23°59' W 046°17'0 0.0
2017-Nov-18 14:30S 23°59' W 046°17'0 0.0
2017-Nov-18 14:00S 23°59' W 046°17'0 0.0
2017-Nov-18 13:30S 23°59' W 046°17'0 0.0
2017-Nov-18 10:58S 23°59' W 046°17'0 0.0
2017-Nov-18 10:24S 23°59' W 046°17'0 0.0
2017-Nov-17 19:10S 23°59' W 046°17'0 0.0
2017-Nov-17 17:05S 23°59' W 046°17'0 0.0
2017-Nov-17 16:56S 23°59' W 046°17'0 0.0
2017-Nov-17 16:30S 23°59' W 046°17'0 0.0
2017-Nov-17 15:50S 23°59' W 046°17'0 0.0
2017-Nov-17 15:28S 23°59' W 046°17'0 0.0
2017-Nov-17 14:55S 23°59' W 046°17'0 0.0
2017-Nov-17 14:05S 23°59' W 046°17'0 0.0
2017-Nov-17 13:55S 23°59' W 046°17'0 0.0
2017-Nov-17 13:17S 23°59' W 046°17'0 0.0
2017-Nov-17 13:00S 23°59' W 046°17'0 0.0
2017-Nov-17 12:29S 23°59' W 046°17'0 0.0
2017-Nov-17 12:00S 23°59' W 046°17'0 0.0
2017-Nov-17 11:26S 23°59' W 046°17'0 0.0
2017-Nov-17 11:00S 23°59' W 046°17'0 0.5
2017-Nov-17 10:28S 23°59' W 046°17'3 6.5
2017-Nov-17 10:00S 24°00' W 046°20'4 8.3
2017-Nov-17 09:30S 24°04' W 046°22'3 6.8
2017-Nov-17 09:00S 24°08' W 046°23'5 9.1
2017-Nov-17 08:30S 24°12' W 046°22'612.7
2017-Nov-17 08:00S 24°18' W 046°21'611.5
2017-Nov-17 07:30S 24°22' W 046°16'2710.4
2017-Nov-17 04:56S 24°22' W 045°47'2711.9
2017-Nov-17 02:40S 24°11' W 045°20'412.0
2017-Nov-17 02:22S 24°10' W 045°16'412.2
2017-Nov-17 02:00S 24°09' W 045°12'612.5
2017-Nov-17 01:30S 24°07' W 045°05'53614.3
2017-Nov-15 12:00S 18°12' W 037°54'18715.6 070 / 171020.510.8 27.525.5
2017-Nov-15 00:00S 15°18' W 036°42'19015.8 080 / 161018.510.8 27.023.6
2017-Nov-14 12:00S 12°24' W 035°24'73915.4 050 / 161017.5 28.523.7
2017-Nov-12 12:00S 01°00' W 030°42'35814.9 090 / 161014.510.8 28.023.2
2017-Nov-11 12:00N 04°30' W 028°24'37116.1 090 / 211012.510.8 28.524.4
2017-Nov-10 13:00N 10°12' W 026°00'37014.8 060 / 131016.010.8 28.525.1
2017-Nov-09 12:00N 15°54' W 023°36'   040 / 121018.010.8 27.022.1

Dump ship's entire track history